McGrath, AK

12:01 AM AKDT on September 19, 2014 (GMT -0800)
Nikolai AP, Nikolai, AK | Change Station
CLOSE
Current Station
Airport
Location: Nikolai AP, Nikolai, AK,
Elevation: 413 ft
Nearby Weather Stations

Elev 413 ft 63.02 °N, 154.36 °W | Updated 1 hour ago

Mostly Cloudy
Mostly Cloudy
47 °F
Feels Like 47 °F
N
0
Wind Variable Wind from North

Today
High -- | Low -- °F
--% Chance of Precip.
Yesterday
High -- | Low -- °F
Precip. -- in
7:55 AM 8:29 PM
Waning Crescent, 21% visible
Pressure 29.11 in
Visibility 10.0 miles
Clouds Few 4400 ft
Mostly Cloudy 8500 ft
Dew Point 43 °F
Humidity 86%
Rainfall 0.00 in
Snow Depth Not available.
UV 0 out of 12
Pollen Not available.
Air Quality Not available.
Flu Activity Not available.
METAR PAFS 190656Z AUTO 00000KT 10SM FEW044 BKN085 08/06 A2909 RMK AO2 TSNO T00830061 SLP858 $

More Conditions Fewer Conditions

Pressure 29.11 in
Visibility 10.0 miles
Clouds Few 4400 ft
Mostly Cloudy 8500 ft
Dew Point 43 °F
Humidity 86%
Rainfall 0.00 in
Snow Depth Not available.
UV 0 out of 12
Pollen Not available.
Air Quality Not available.
Flu Activity Not available.
METAR PAFS 190656Z AUTO 00000KT 10SM FEW044 BKN085 08/06 A2909 RMK AO2 TSNO T00830061 SLP858 $

More Conditions Fewer Conditions

10-Day Weather Forecast

Almanac

Astronomy

Sep. 19, 2014 Rise Set
Actual Time 7:55 AM AKDT 8:29 PM AKDT
Civil Twilight 7:09 AM AKDT 9:15 PM AKDT
Nautical Twilight 6:12 AM AKDT 10:11 PM AKDT
Astronomical Twilight 5:07 AM AKDT 11:16 PM AKDT
Moon 2:46 AM AKDT 6:58 PM AKDT
Length of Visible Light 14h 05m
Length of Day
12h 33m
Tomorrow will be 6m 4s shorter.
Waning Crescent, 21% of the Moon is Illuminated
Today
Waning Crescent
Sep 24
New
Oct 1
First Quarter
Oct 8
Full
Oct 15
Last Quarter

Community

WunderPhotos

Upload Photos

1,754,578 photos uploaded!

Nearby

Snow Depth

Station Depth Elevation
Mcneil Canyon 1 in 1320 ft
Upper Chena 1 in 2850 ft
Susitna Valley High 109 in 375 ft
Summit Creek 0 in 1400 ft
Munson Ridge 1 in 3100 ft

Earthquake Activity

City Distance Mag. Time & Date
No recent earthquake activity has been reported nearby.
Minimum magnitude displayed is 2.5.

Coastal Water Temperatures

Place Temperature
No Stations Reporting

Nearby Weather Stations